Weerspreuk van de dag: Vallen de eikels al voor St. Machiel(29), dan snijdt de winter door lijf en ziel.
Het weer levert geen direct gevaar op.    Er zijn geen waarschuwingen afgegeven.

Onweer radar Meer informatie blitzortung!


Regen radar Meer informatie rain snow radar


Bekijk deze sites ook eens:

FPL Automotive (TIP)

Autostekkers.nl (TIP)

Over Luyksgestel

De Kempen, mijn omgeving

BOL.com

Weerstation Noordbergum

Inktweb

Weerstation Hapert

Weerstation Hoogeloon

Weerstation Son&Breugel

Weerstation Castaert

Nieuw horloge

Weerstation Tilburg Reeshof

Weerstation Scheulder

Weerverwachting Samos

Samos actueel

Weerwoord (forum)

Griekenlandforum

Vakantie naar Samos

Winterzon

Canon

Wolven in Nederland



METAR rapporten vliegvelden

   
EBAW - Antwerp
Gewijzigd: 20-09-2020 02:50
Helder  
Helder  
   Wind: NO 7.4 km/h
Wind: NO 7.4 km/h
Temperatuur: 16°C
Dauwpunt: 7°C
Vochtigheid: 55%
Barometer: 1016 hPa
Zicht: meer dan 10 km
Bewolking: Helder
EBAW 200050Z AUTO 04004KT CAVOK 16/07 Q1016
EBLG - Liège
Gewijzigd: 20-09-2020 02:50
Helder  
Helder  
   Wind: varieert 1.9 km/h
Wind: varieert 1.9 km/h
Temperatuur: 17°C
Dauwpunt: 9°C
Vochtigheid: 59%
Barometer: 1016 hPa
Zicht: meer dan 10 km
Bewolking: Helder
EBLG 200050Z VRB01KT CAVOK 17/09 Q1016 NOSIG
EBCV - Mons/Bergen
Gewijzigd: 20-09-2020 02:55
Bewolking  
Bewolking  
   Wind: Noorden 5.6 km/h
Wind: Noorden 5.6 km/h
Temperatuur: 17°C
Dauwpunt: 12°C
Vochtigheid: 73%
Barometer: 1015 hPa
Bewolking: Bewolking
Zicht: meer dan 10 km
Bewolking: Grotendeels bewolkt 7700 ft,
Bewolking 21000 ft
EBCV 200055Z AUTO 01003KT 9999 BKN077/// OVC210/// 17/12 Q1015 BLU
EHBK - Maastricht
Gewijzigd: 20-09-2020 02:55
Helder  
Helder  
   Wind: ONO 7.4 km/h
Wind: ONO 7.4 km/h
Temperatuur: 13°C
Dauwpunt: 7°C
Vochtigheid: 67%
Barometer: 1015 hPa
Bewolking: Helder
Zicht: meer dan 10 km
Bewolking: Helder
EHBK 200055Z AUTO 06004KT 010V120 9999 NCD 13/07 Q1015
ELLX - Luxemburg
Gewijzigd: 20-09-2020 02:50
Helder  
Helder  
   Wind: NO 9.3 km/h
Wind: NO 9.3 km/h
Temperatuur: 16°C
Dauwpunt: 9°C
Vochtigheid: 63%
Barometer: 1016 hPa
Bewolking: Helder
Zicht: meer dan 10 km
Bewolking: Helder
ELLX 200050Z AUTO 05005KT 9999 NCD 16/09 Q1016 NOSIG
EBOS - Oostende
Gewijzigd: 20-09-2020 02:50
Helder  
Helder  
   Wind: ONO 18.5 km/h
Wind: ONO 18.5 km/h
Temperatuur: 18°C
Dauwpunt: 10°C
Vochtigheid: 60%
Barometer: 1016 hPa
Zicht: meer dan 10 km
Bewolking: Helder
EBOS 200050Z 06010KT CAVOK 18/10 Q1016 NOSIG

Script ontwikkeld door  Saratoga-weather.org Aangepast voor de template door  Weerstation Leuven

U vindt ons ook hier:

Het Weer Aktueel

UK Metoffice

European Weather Network

Weather Underground

AWEKAS